Beallsville, OH (43716)

11:49 AM EDT on October 24, 2014 (GMT -0400)
Jerusalem | Change Station
CLOSE
Current Station
Personal Weather Station
Location: Jerusalem, OH
Elevation: 1253 ft
Nearby Weather Stations

Elev 1253 ft 39.86 °N, 81.11 °W | Updated 5 seconds ago

Clear
Clear
54.7 °F
Feels Like 54.7 °F
N
3.1
Wind Variable Wind from WSW
Gusts 5.0 mph

Today
High -- | Low -- °F
--% Chance of Precip.
Yesterday
High -- | Low -- °F
Precip. -- in
7:43 AM 6:31 PM
New Moon, 1% visible
Pressure 30.13 in
Visibility 8.0 miles
Clouds Few 200 ft
Dew Point 46 °F
Humidity 71%
Rainfall 0.00 in
Snow Depth Not available.
UV 3 out of 12
Pollen .70 out of 12
Air Quality Not available.
Flu Activity Sporadic
METAR KHLG 241453Z 23003KT 8SM FEW002 08/07 A3011 RMK AO2 SLP202 T00780067 58001

More Conditions Fewer Conditions

Pressure 30.13 in
Visibility 8.0 miles
Clouds Few 200 ft
Dew Point 46 °F
Humidity 71%
Rainfall 0.00 in
Snow Depth Not available.
UV 3 out of 12
Pollen .70 out of 12
Air Quality Not available.
Flu Activity Sporadic
METAR KHLG 241453Z 23003KT 8SM FEW002 08/07 A3011 RMK AO2 SLP202 T00780067 58001

More Conditions Fewer Conditions

10-Day Weather Forecast

Almanac

Astronomy

Oct. 24, 2014 Rise Set
Actual Time 7:43 AM EDT 6:31 PM EDT
Civil Twilight 7:16 AM EDT 6:59 PM EDT
Nautical Twilight 6:44 AM EDT 7:30 PM EDT
Astronomical Twilight 6:13 AM EDT 8:02 PM EDT
Moon 8:21 AM EDT 7:10 PM EDT
Length of Visible Light 11h 43m
Length of Day
10h 47m
Tomorrow will be 2m 26s shorter.
New Moon, 1% of the Moon is Illuminated
Today
New Moon
Oct 30
First Quarter
Nov 6
Full
Nov 14
Last Quarter
Nov 22
New

Today's Extremes

State Highs State Lows

Community

WunderPhotos

Upload Photos

1,764,590 photos uploaded!

WunderBlogs® & News

Nearby

Snow Depth

Station Depth Elevation
No new snow has been reported.

Earthquake Activity

City Distance Mag. Time & Date
No recent earthquake activity has been reported nearby.
Minimum magnitude displayed is 2.5.

Coastal Water Temperatures

Place Temperature
No Stations Reporting

Nearby Weather Stations